sensor_id;sensor_type;location;lat;lon;timestamp;P1;durP1;ratioP1;P2;durP2;ratioP2
3211;SDS011;1618;47.056;15.472;2023-05-10T00:01:18;12.87;;;12.37;;
3211;SDS011;1618;47.056;15.472;2023-05-10T00:03:46;12.93;;;12.33;;
3211;SDS011;1618;47.056;15.472;2023-05-10T00:06:15;12.90;;;12.30;;
3211;SDS011;1618;47.056;15.472;2023-05-10T00:08:43;13.03;;;12.43;;
3211;SDS011;1618;47.056;15.472;2023-05-10T00:11:10;13.47;;;12.87;;
3211;SDS011;1618;47.056;15.472;2023-05-10T00:13:37;13.20;;;12.60;;
3211;SDS011;1618;47.056;15.472;2023-05-10T00:16:05;12.90;;;12.30;;
3211;SDS011;1618;47.056;15.472;2023-05-10T00:18:32;12.60;;;12.00;;
3211;SDS011;1618;47.056;15.472;2023-05-10T00:21:00;11.63;;;11.13;;
3211;SDS011;1618;47.056;15.472;2023-05-10T00:23:28;10.30;;;9.90;;
3211;SDS011;1618;47.056;15.472;2023-05-10T00:25:56;9.90;;;9.50;;
3211;SDS011;1618;47.056;15.472;2023-05-10T00:28:23;10.27;;;9.70;;
3211;SDS011;1618;47.056;15.472;2023-05-10T00:30:50;10.30;;;9.90;;
3211;SDS011;1618;47.056;15.472;2023-05-10T00:33:18;10.20;;;9.70;;
3211;SDS011;1618;47.056;15.472;2023-05-10T00:35:45;9.80;;;9.40;;
3211;SDS011;1618;47.056;15.472;2023-05-10T00:38:12;10.03;;;9.63;;
3211;SDS011;1618;47.056;15.472;2023-05-10T00:40:41;10.53;;;10.03;;
3211;SDS011;1618;47.056;15.472;2023-05-10T00:43:09;10.50;;;10.00;;
3211;SDS011;1618;47.056;15.472;2023-05-10T00:45:36;9.90;;;9.47;;
3211;SDS011;1618;47.056;15.472;2023-05-10T00:48:04;9.70;;;9.30;;
3211;SDS011;1618;47.056;15.472;2023-05-10T00:50:32;9.13;;;8.73;;
3211;SDS011;1618;47.056;15.472;2023-05-10T00:52:59;9.00;;;8.60;;
3211;SDS011;1618;47.056;15.472;2023-05-10T00:55:27;9.40;;;8.90;;
3211;SDS011;1618;47.056;15.472;2023-05-10T00:57:56;8.33;;;8.03;;
3211;SDS011;1618;47.056;15.472;2023-05-10T01:00:23;9.27;;;8.77;;
3211;SDS011;1618;47.056;15.472;2023-05-10T01:02:51;9.00;;;8.70;;
3211;SDS011;1618;47.056;15.472;2023-05-10T01:05:19;10.17;;;9.77;;
3211;SDS011;1618;47.056;15.472;2023-05-10T01:07:47;9.90;;;9.50;;
3211;SDS011;1618;47.056;15.472;2023-05-10T01:10:14;10.80;;;10.20;;
3211;SDS011;1618;47.056;15.472;2023-05-10T01:12:43;9.47;;;8.97;;
3211;SDS011;1618;47.056;15.472;2023-05-10T01:15:12;8.90;;;8.40;;
3211;SDS011;1618;47.056;15.472;2023-05-10T01:17:41;8.37;;;8.00;;
3211;SDS011;1618;47.056;15.472;2023-05-10T01:20:09;8.67;;;8.30;;
3211;SDS011;1618;47.056;15.472;2023-05-10T01:22:47;8.37;;;8.07;;
3211;SDS011;1618;47.056;15.472;2023-05-10T01:28:13;8.43;;;8.03;;
3211;SDS011;1618;47.056;15.472;2023-05-10T01:33:30;8.07;;;7.77;;
3211;SDS011;1618;47.056;15.472;2023-05-10T01:36:03;9.20;;;8.80;;
3211;SDS011;1618;47.056;15.472;2023-05-10T01:38:33;8.43;;;8.03;;
3211;SDS011;1618;47.056;15.472;2023-05-10T01:41:07;8.30;;;7.90;;
3211;SDS011;1618;47.056;15.472;2023-05-10T01:43:38;8.70;;;8.30;;
3211;SDS011;1618;47.056;15.472;2023-05-10T01:46:10;8.50;;;8.00;;
3211;SDS011;1618;47.056;15.472;2023-05-10T01:48:46;8.00;;;7.70;;
3211;SDS011;1618;47.056;15.472;2023-05-10T01:51:14;9.00;;;8.40;;
3211;SDS011;1618;47.056;15.472;2023-05-10T01:53:44;8.77;;;8.27;;
3211;SDS011;1618;47.056;15.472;2023-05-10T01:56:12;8.87;;;8.40;;
3211;SDS011;1618;47.056;15.472;2023-05-10T01:58:39;9.13;;;8.63;;
3211;SDS011;1618;47.056;15.472;2023-05-10T02:01:07;9.30;;;8.80;;
3211;SDS011;1618;47.056;15.472;2023-05-10T02:03:35;10.30;;;9.80;;
3211;SDS011;1618;47.056;15.472;2023-05-10T02:06:05;9.50;;;9.10;;
3211;SDS011;1618;47.056;15.472;2023-05-10T02:08:32;9.57;;;9.13;;
3211;SDS011;1618;47.056;15.472;2023-05-10T02:11:00;9.93;;;9.43;;
3211;SDS011;1618;47.056;15.472;2023-05-10T02:13:28;9.47;;;8.97;;
3211;SDS011;1618;47.056;15.472;2023-05-10T02:15:56;8.50;;;8.10;;
3211;SDS011;1618;47.056;15.472;2023-05-10T02:18:24;8.57;;;8.17;;
3211;SDS011;1618;47.056;15.472;2023-05-10T02:20:52;8.73;;;8.33;;
3211;SDS011;1618;47.056;15.472;2023-05-10T02:23:22;9.20;;;8.80;;
3211;SDS011;1618;47.056;15.472;2023-05-10T02:25:50;9.83;;;9.40;;
3211;SDS011;1618;47.056;15.472;2023-05-10T02:28:18;10.70;;;10.13;;
3211;SDS011;1618;47.056;15.472;2023-05-10T02:30:46;8.77;;;8.33;;
3211;SDS011;1618;47.056;15.472;2023-05-10T02:33:14;8.23;;;7.90;;
3211;SDS011;1618;47.056;15.472;2023-05-10T02:35:41;8.73;;;8.20;;
3211;SDS011;1618;47.056;15.472;2023-05-10T02:38:08;8.20;;;7.90;;
3211;SDS011;1618;47.056;15.472;2023-05-10T02:40:39;9.00;;;8.53;;
3211;SDS011;1618;47.056;15.472;2023-05-10T02:43:09;9.70;;;9.20;;
3211;SDS011;1618;47.056;15.472;2023-05-10T02:45:39;9.03;;;8.63;;
3211;SDS011;1618;47.056;15.472;2023-05-10T02:48:07;9.47;;;8.97;;
3211;SDS011;1618;47.056;15.472;2023-05-10T02:50:34;10.57;;;9.87;;
3211;SDS011;1618;47.056;15.472;2023-05-10T02:53:03;8.93;;;8.57;;
3211;SDS011;1618;47.056;15.472;2023-05-10T02:55:35;9.47;;;9.07;;
3211;SDS011;1618;47.056;15.472;2023-05-10T02:58:04;9.90;;;9.40;;
3211;SDS011;1618;47.056;15.472;2023-05-10T03:00:32;8.67;;;8.30;;
3211;SDS011;1618;47.056;15.472;2023-05-10T03:03:01;8.63;;;8.23;;
3211;SDS011;1618;47.056;15.472;2023-05-10T03:05:28;9.20;;;8.70;;
3211;SDS011;1618;47.056;15.472;2023-05-10T03:07:55;7.77;;;7.37;;
3211;SDS011;1618;47.056;15.472;2023-05-10T03:10:24;8.00;;;7.70;;
3211;SDS011;1618;47.056;15.472;2023-05-10T03:12:57;7.23;;;6.93;;
3211;SDS011;1618;47.056;15.472;2023-05-10T03:15:32;9.67;;;9.27;;
3211;SDS011;1618;47.056;15.472;2023-05-10T03:18:06;9.97;;;9.47;;
3211;SDS011;1618;47.056;15.472;2023-05-10T03:20:35;10.40;;;8.80;;
3211;SDS011;1618;47.056;15.472;2023-05-10T03:23:04;7.83;;;7.53;;
3211;SDS011;1618;47.056;15.472;2023-05-10T03:25:34;8.27;;;7.80;;
3211;SDS011;1618;47.056;15.472;2023-05-10T03:28:01;9.33;;;8.83;;
3211;SDS011;1618;47.056;15.472;2023-05-10T03:30:32;8.80;;;8.40;;
3211;SDS011;1618;47.056;15.472;2023-05-10T03:33:03;10.83;;;10.33;;
3211;SDS011;1618;47.056;15.472;2023-05-10T03:35:31;10.07;;;9.60;;
3211;SDS011;1618;47.056;15.472;2023-05-10T03:37:59;9.80;;;9.40;;
3211;SDS011;1618;47.056;15.472;2023-05-10T03:40:26;10.63;;;9.97;;
3211;SDS011;1618;47.056;15.472;2023-05-10T03:42:56;9.23;;;8.80;;
3211;SDS011;1618;47.056;15.472;2023-05-10T03:45:23;9.70;;;9.20;;
3211;SDS011;1618;47.056;15.472;2023-05-10T03:47:52;9.23;;;8.73;;
3211;SDS011;1618;47.056;15.472;2023-05-10T03:50:20;8.80;;;8.40;;
3211;SDS011;1618;47.056;15.472;2023-05-10T03:52:47;10.17;;;9.60;;
3211;SDS011;1618;47.056;15.472;2023-05-10T03:55:15;10.67;;;10.07;;
3211;SDS011;1618;47.056;15.472;2023-05-10T03:57:42;8.83;;;8.43;;
3211;SDS011;1618;47.056;15.472;2023-05-10T04:00:10;9.90;;;9.50;;
3211;SDS011;1618;47.056;15.472;2023-05-10T04:02:37;9.30;;;8.90;;
3211;SDS011;1618;47.056;15.472;2023-05-10T04:05:06;8.23;;;7.93;;
3211;SDS011;1618;47.056;15.472;2023-05-10T04:07:34;9.10;;;8.70;;
3211;SDS011;1618;47.056;15.472;2023-05-10T04:10:01;9.23;;;8.83;;
3211;SDS011;1618;47.056;15.472;2023-05-10T04:12:28;8.63;;;8.23;;
3211;SDS011;1618;47.056;15.472;2023-05-10T04:14:56;9.00;;;8.60;;
3211;SDS011;1618;47.056;15.472;2023-05-10T04:17:23;9.10;;;8.50;;
3211;SDS011;1618;47.056;15.472;2023-05-10T04:19:50;8.00;;;7.60;;
3211;SDS011;1618;47.056;15.472;2023-05-10T04:22:21;8.80;;;8.30;;
3211;SDS011;1618;47.056;15.472;2023-05-10T04:24:48;8.10;;;7.70;;
3211;SDS011;1618;47.056;15.472;2023-05-10T04:27:15;7.80;;;7.40;;
3211;SDS011;1618;47.056;15.472;2023-05-10T04:29:43;7.63;;;7.33;;
3211;SDS011;1618;47.056;15.472;2023-05-10T04:32:10;8.40;;;8.00;;
3211;SDS011;1618;47.056;15.472;2023-05-10T04:34:37;8.70;;;8.23;;
3211;SDS011;1618;47.056;15.472;2023-05-10T04:37:04;7.30;;;6.97;;
3211;SDS011;1618;47.056;15.472;2023-05-10T04:39:34;7.73;;;7.33;;
3211;SDS011;1618;47.056;15.472;2023-05-10T04:42:01;7.80;;;7.40;;
3211;SDS011;1618;47.056;15.472;2023-05-10T04:44:30;7.60;;;7.30;;
3211;SDS011;1618;47.056;15.472;2023-05-10T04:46:58;8.30;;;7.80;;
3211;SDS011;1618;47.056;15.472;2023-05-10T04:49:25;8.50;;;8.00;;
3211;SDS011;1618;47.056;15.472;2023-05-10T04:51:53;8.23;;;7.83;;
3211;SDS011;1618;47.056;15.472;2023-05-10T04:54:21;7.60;;;7.20;;
3211;SDS011;1618;47.056;15.472;2023-05-10T04:56:49;8.07;;;7.57;;
3211;SDS011;1618;47.056;15.472;2023-05-10T04:59:16;8.83;;;7.97;;
3211;SDS011;1618;47.056;15.472;2023-05-10T05:01:44;9.10;;;8.43;;
3211;SDS011;1618;47.056;15.472;2023-05-10T05:04:11;7.30;;;7.00;;
3211;SDS011;1618;47.056;15.472;2023-05-10T05:06:39;8.60;;;8.13;;
3211;SDS011;1618;47.056;15.472;2023-05-10T05:09:06;7.70;;;7.30;;
3211;SDS011;1618;47.056;15.472;2023-05-10T05:11:35;8.20;;;7.60;;
3211;SDS011;1618;47.056;15.472;2023-05-10T05:14:03;7.07;;;6.77;;
3211;SDS011;1618;47.056;15.472;2023-05-10T05:16:31;7.03;;;6.73;;
3211;SDS011;1618;47.056;15.472;2023-05-10T05:18:59;7.50;;;7.10;;
3211;SDS011;1618;47.056;15.472;2023-05-10T05:21:26;6.90;;;6.60;;
3211;SDS011;1618;47.056;15.472;2023-05-10T05:23:54;8.07;;;7.40;;
3211;SDS011;1618;47.056;15.472;2023-05-10T05:26:21;7.97;;;7.57;;
3211;SDS011;1618;47.056;15.472;2023-05-10T05:28:49;7.87;;;7.47;;
3211;SDS011;1618;47.056;15.472;2023-05-10T05:31:20;7.83;;;7.43;;
3211;SDS011;1618;47.056;15.472;2023-05-10T05:33:47;8.67;;;8.17;;
3211;SDS011;1618;47.056;15.472;2023-05-10T05:36:14;13.80;;;8.33;;
3211;SDS011;1618;47.056;15.472;2023-05-10T05:38:42;9.00;;;8.50;;
3211;SDS011;1618;47.056;15.472;2023-05-10T05:41:10;9.37;;;8.87;;
3211;SDS011;1618;47.056;15.472;2023-05-10T05:43:37;9.00;;;8.50;;
3211;SDS011;1618;47.056;15.472;2023-05-10T05:46:04;8.63;;;8.23;;
3211;SDS011;1618;47.056;15.472;2023-05-10T05:48:33;8.87;;;8.40;;
3211;SDS011;1618;47.056;15.472;2023-05-10T05:51:00;9.60;;;9.03;;
3211;SDS011;1618;47.056;15.472;2023-05-10T05:53:27;9.20;;;8.70;;
3211;SDS011;1618;47.056;15.472;2023-05-10T05:55:55;9.50;;;9.10;;
3211;SDS011;1618;47.056;15.472;2023-05-10T05:58:23;9.93;;;9.50;;
3211;SDS011;1618;47.056;15.472;2023-05-10T06:00:50;10.57;;;10.07;;
3211;SDS011;1618;47.056;15.472;2023-05-10T06:03:18;11.70;;;11.00;;
3211;SDS011;1618;47.056;15.472;2023-05-10T06:05:46;11.83;;;11.30;;
3211;SDS011;1618;47.056;15.472;2023-05-10T06:08:14;13.17;;;12.57;;
3211;SDS011;1618;47.056;15.472;2023-05-10T06:10:41;15.90;;;14.47;;
3211;SDS011;1618;47.056;15.472;2023-05-10T06:13:09;17.50;;;16.50;;
3211;SDS011;1618;47.056;15.472;2023-05-10T06:15:36;18.50;;;17.53;;
3211;SDS011;1618;47.056;15.472;2023-05-10T06:18:04;19.20;;;18.20;;
3211;SDS011;1618;47.056;15.472;2023-05-10T06:20:32;20.40;;;19.30;;
3211;SDS011;1618;47.056;15.472;2023-05-10T06:23:01;20.03;;;18.93;;
3211;SDS011;1618;47.056;15.472;2023-05-10T06:25:28;19.97;;;18.87;;
3211;SDS011;1618;47.056;15.472;2023-05-10T06:27:56;19.70;;;18.70;;
3211;SDS011;1618;47.056;15.472;2023-05-10T06:30:24;20.23;;;19.13;;
3211;SDS011;1618;47.056;15.472;2023-05-10T06:32:53;21.90;;;20.60;;
3211;SDS011;1618;47.056;15.472;2023-05-10T06:35:21;23.20;;;21.80;;
3211;SDS011;1618;47.056;15.472;2023-05-10T06:37:48;22.10;;;20.83;;
3211;SDS011;1618;47.056;15.472;2023-05-10T06:40:17;22.10;;;20.80;;
3211;SDS011;1618;47.056;15.472;2023-05-10T06:42:44;23.73;;;22.20;;
3211;SDS011;1618;47.056;15.472;2023-05-10T06:45:12;23.80;;;22.30;;
3211;SDS011;1618;47.056;15.472;2023-05-10T06:47:40;23.50;;;22.10;;
3211;SDS011;1618;47.056;15.472;2023-05-10T06:50:07;26.90;;;25.00;;
3211;SDS011;1618;47.056;15.472;2023-05-10T06:52:35;26.00;;;24.20;;
3211;SDS011;1618;47.056;15.472;2023-05-10T06:55:02;26.43;;;24.60;;
3211;SDS011;1618;47.056;15.472;2023-05-10T06:57:31;27.17;;;25.27;;
3211;SDS011;1618;47.056;15.472;2023-05-10T06:59:58;26.30;;;24.50;;
3211;SDS011;1618;47.056;15.472;2023-05-10T07:02:25;26.80;;;25.00;;
3211;SDS011;1618;47.056;15.472;2023-05-10T07:04:53;26.67;;;24.87;;
3211;SDS011;1618;47.056;15.472;2023-05-10T07:07:20;27.13;;;25.43;;
3211;SDS011;1618;47.056;15.472;2023-05-10T07:09:47;27.47;;;25.57;;
3211;SDS011;1618;47.056;15.472;2023-05-10T07:12:15;26.80;;;24.90;;
3211;SDS011;1618;47.056;15.472;2023-05-10T07:14:43;26.30;;;24.40;;
3211;SDS011;1618;47.056;15.472;2023-05-10T07:17:11;26.77;;;24.77;;
3211;SDS011;1618;47.056;15.472;2023-05-10T07:19:39;25.87;;;23.93;;
3211;SDS011;1618;47.056;15.472;2023-05-10T07:22:06;27.07;;;24.90;;
3211;SDS011;1618;47.056;15.472;2023-05-10T07:24:34;27.77;;;25.13;;
3211;SDS011;1618;47.056;15.472;2023-05-10T07:27:01;25.43;;;23.47;;
3211;SDS011;1618;47.056;15.472;2023-05-10T07:29:29;25.87;;;23.97;;
3211;SDS011;1618;47.056;15.472;2023-05-10T07:31:58;25.00;;;23.10;;
3211;SDS011;1618;47.056;15.472;2023-05-10T07:34:25;27.07;;;24.70;;
3211;SDS011;1618;47.056;15.472;2023-05-10T07:36:52;25.97;;;23.87;;
3211;SDS011;1618;47.056;15.472;2023-05-10T07:39:20;26.23;;;24.07;;
3211;SDS011;1618;47.056;15.472;2023-05-10T07:41:47;25.60;;;23.50;;
3211;SDS011;1618;47.056;15.472;2023-05-10T07:44:14;26.00;;;23.90;;
3211;SDS011;1618;47.056;15.472;2023-05-10T07:46:43;25.80;;;23.67;;
3211;SDS011;1618;47.056;15.472;2023-05-10T07:49:12;25.40;;;23.30;;
3211;SDS011;1618;47.056;15.472;2023-05-10T07:51:39;25.63;;;23.40;;
3211;SDS011;1618;47.056;15.472;2023-05-10T07:54:07;25.97;;;23.87;;
3211;SDS011;1618;47.056;15.472;2023-05-10T07:56:35;25.67;;;23.47;;
3211;SDS011;1618;47.056;15.472;2023-05-10T07:59:14;26.50;;;24.20;;
3211;SDS011;1618;47.056;15.472;2023-05-10T08:01:44;25.97;;;23.87;;
3211;SDS011;1618;47.056;15.472;2023-05-10T08:04:15;26.03;;;23.93;;
3211;SDS011;1618;47.056;15.472;2023-05-10T08:06:42;26.27;;;24.17;;
3211;SDS011;1618;47.056;15.472;2023-05-10T08:09:09;26.30;;;24.20;;
3211;SDS011;1618;47.056;15.472;2023-05-10T08:11:37;26.93;;;24.60;;
3211;SDS011;1618;47.056;15.472;2023-05-10T08:14:04;27.80;;;25.50;;
3211;SDS011;1618;47.056;15.472;2023-05-10T08:16:32;26.60;;;24.40;;
3211;SDS011;1618;47.056;15.472;2023-05-10T08:19:00;27.40;;;25.10;;
3211;SDS011;1618;47.056;15.472;2023-05-10T08:21:29;27.03;;;24.77;;
3211;SDS011;1618;47.056;15.472;2023-05-10T08:23:56;27.80;;;25.30;;
3211;SDS011;1618;47.056;15.472;2023-05-10T08:26:24;27.03;;;24.83;;
3211;SDS011;1618;47.056;15.472;2023-05-10T08:28:51;27.83;;;25.50;;
3211;SDS011;1618;47.056;15.472;2023-05-10T08:31:18;27.93;;;25.53;;
3211;SDS011;1618;47.056;15.472;2023-05-10T08:33:46;28.50;;;26.10;;
3211;SDS011;1618;47.056;15.472;2023-05-10T08:36:13;28.40;;;26.00;;
3211;SDS011;1618;47.056;15.472;2023-05-10T08:38:46;29.20;;;26.80;;
3211;SDS011;1618;47.056;15.472;2023-05-10T08:41:13;28.50;;;26.20;;
3211;SDS011;1618;47.056;15.472;2023-05-10T08:43:40;27.37;;;25.07;;
3211;SDS011;1618;47.056;15.472;2023-05-10T08:46:11;29.10;;;26.70;;
3211;SDS011;1618;47.056;15.472;2023-05-10T08:48:41;27.93;;;25.43;;
3211;SDS011;1618;47.056;15.472;2023-05-10T08:51:09;27.90;;;25.50;;
3211;SDS011;1618;47.056;15.472;2023-05-10T08:53:37;28.00;;;25.60;;
3211;SDS011;1618;47.056;15.472;2023-05-10T08:56:06;28.23;;;25.83;;
3211;SDS011;1618;47.056;15.472;2023-05-10T08:58:34;28.40;;;25.80;;
3211;SDS011;1618;47.056;15.472;2023-05-10T09:01:01;29.53;;;27.03;;
3211;SDS011;1618;47.056;15.472;2023-05-10T09:03:29;29.63;;;27.07;;
3211;SDS011;1618;47.056;15.472;2023-05-10T09:05:57;28.20;;;25.73;;
3211;SDS011;1618;47.056;15.472;2023-05-10T09:08:25;27.93;;;25.43;;
3211;SDS011;1618;47.056;15.472;2023-05-10T09:10:52;27.83;;;25.43;;
3211;SDS011;1618;47.056;15.472;2023-05-10T09:13:22;28.17;;;25.67;;
3211;SDS011;1618;47.056;15.472;2023-05-10T09:15:49;28.00;;;25.50;;
3211;SDS011;1618;47.056;15.472;2023-05-10T09:18:17;27.53;;;25.03;;
3211;SDS011;1618;47.056;15.472;2023-05-10T09:20:44;28.50;;;26.10;;
3211;SDS011;1618;47.056;15.472;2023-05-10T09:23:12;28.53;;;26.13;;
3211;SDS011;1618;47.056;15.472;2023-05-10T09:25:40;28.27;;;25.87;;
3211;SDS011;1618;47.056;15.472;2023-05-10T09:28:08;28.67;;;26.17;;
3211;SDS011;1618;47.056;15.472;2023-05-10T09:30:37;28.00;;;25.70;;
3211;SDS011;1618;47.056;15.472;2023-05-10T09:33:04;28.20;;;25.70;;
3211;SDS011;1618;47.056;15.472;2023-05-10T09:35:32;28.60;;;26.00;;
3211;SDS011;1618;47.056;15.472;2023-05-10T09:38:02;28.13;;;25.63;;
3211;SDS011;1618;47.056;15.472;2023-05-10T09:40:29;28.60;;;26.10;;
3211;SDS011;1618;47.056;15.472;2023-05-10T09:42:57;28.93;;;26.33;;
3211;SDS011;1618;47.056;15.472;2023-05-10T09:45:26;28.73;;;26.20;;
3211;SDS011;1618;47.056;15.472;2023-05-10T09:47:54;29.90;;;27.20;;
3211;SDS011;1618;47.056;15.472;2023-05-10T09:50:22;29.03;;;26.37;;
3211;SDS011;1618;47.056;15.472;2023-05-10T09:52:50;28.60;;;26.10;;
3211;SDS011;1618;47.056;15.472;2023-05-10T09:55:20;28.30;;;25.80;;
3211;SDS011;1618;47.056;15.472;2023-05-10T09:57:48;28.57;;;25.97;;
3211;SDS011;1618;47.056;15.472;2023-05-10T10:00:16;28.83;;;26.20;;
3211;SDS011;1618;47.056;15.472;2023-05-10T10:02:45;29.10;;;26.60;;
3211;SDS011;1618;47.056;15.472;2023-05-10T10:05:13;28.73;;;26.20;;
3211;SDS011;1618;47.056;15.472;2023-05-10T10:07:41;28.70;;;26.10;;
3211;SDS011;1618;47.056;15.472;2023-05-10T10:10:09;29.80;;;27.10;;
3211;SDS011;1618;47.056;15.472;2023-05-10T10:12:38;29.53;;;26.63;;
3211;SDS011;1618;47.056;15.472;2023-05-10T10:15:06;31.00;;;28.40;;
3211;SDS011;1618;47.056;15.472;2023-05-10T10:17:35;28.90;;;26.40;;
3211;SDS011;1618;47.056;15.472;2023-05-10T10:20:02;29.17;;;26.10;;
3211;SDS011;1618;47.056;15.472;2023-05-10T10:22:31;29.77;;;27.07;;
3211;SDS011;1618;47.056;15.472;2023-05-10T10:24:58;28.87;;;26.27;;
3211;SDS011;1618;47.056;15.472;2023-05-10T10:27:28;29.80;;;27.20;;
3211;SDS011;1618;47.056;15.472;2023-05-10T10:30:01;29.27;;;26.70;;
3211;SDS011;1618;47.056;15.472;2023-05-10T10:32:32;29.00;;;26.50;;
3211;SDS011;1618;47.056;15.472;2023-05-10T10:35:02;30.50;;;27.70;;
3211;SDS011;1618;47.056;15.472;2023-05-10T10:37:46;29.33;;;26.63;;
3211;SDS011;1618;47.056;15.472;2023-05-10T10:40:23;29.70;;;27.00;;
3211;SDS011;1618;47.056;15.472;2023-05-10T10:42:50;29.70;;;27.00;;
3211;SDS011;1618;47.056;15.472;2023-05-10T10:45:19;29.33;;;26.53;;
3211;SDS011;1618;47.056;15.472;2023-05-10T10:47:46;28.67;;;26.07;;
3211;SDS011;1618;47.056;15.472;2023-05-10T10:50:15;29.20;;;26.50;;
3211;SDS011;1618;47.056;15.472;2023-05-10T10:52:43;29.10;;;26.30;;
3211;SDS011;1618;47.056;15.472;2023-05-10T10:55:12;29.10;;;26.40;;
3211;SDS011;1618;47.056;15.472;2023-05-10T10:57:44;29.53;;;26.83;;
3211;SDS011;1618;47.056;15.472;2023-05-10T11:00:21;30.40;;;27.60;;
3211;SDS011;1618;47.056;15.472;2023-05-10T11:02:50;29.27;;;26.53;;
3211;SDS011;1618;47.056;15.472;2023-05-10T11:05:24;29.80;;;26.90;;
3211;SDS011;1618;47.056;15.472;2023-05-10T11:07:51;29.00;;;26.30;;
3211;SDS011;1618;47.056;15.472;2023-05-10T11:10:20;29.40;;;26.70;;
3211;SDS011;1618;47.056;15.472;2023-05-10T11:12:51;28.50;;;25.80;;
3211;SDS011;1618;47.056;15.472;2023-05-10T11:15:19;30.20;;;27.50;;
3211;SDS011;1618;47.056;15.472;2023-05-10T11:17:47;29.90;;;27.10;;
3211;SDS011;1618;47.056;15.472;2023-05-10T11:20:17;29.17;;;26.47;;
3211;SDS011;1618;47.056;15.472;2023-05-10T11:22:50;28.63;;;25.83;;
3211;SDS011;1618;47.056;15.472;2023-05-10T11:25:18;29.30;;;26.60;;
3211;SDS011;1618;47.056;15.472;2023-05-10T11:27:47;29.20;;;26.60;;
3211;SDS011;1618;47.056;15.472;2023-05-10T11:30:15;28.33;;;25.63;;
3211;SDS011;1618;47.056;15.472;2023-05-10T11:32:43;28.67;;;25.97;;
3211;SDS011;1618;47.056;15.472;2023-05-10T11:35:10;28.97;;;26.17;;
3211;SDS011;1618;47.056;15.472;2023-05-10T11:37:38;29.17;;;26.47;;
3211;SDS011;1618;47.056;15.472;2023-05-10T11:40:09;29.40;;;26.70;;
3211;SDS011;1618;47.056;15.472;2023-05-10T11:42:36;29.73;;;26.83;;
3211;SDS011;1618;47.056;15.472;2023-05-10T11:45:06;29.30;;;26.60;;
3211;SDS011;1618;47.056;15.472;2023-05-10T11:47:33;29.00;;;26.40;;
3211;SDS011;1618;47.056;15.472;2023-05-10T11:50:02;29.47;;;26.87;;
3211;SDS011;1618;47.056;15.472;2023-05-10T11:52:29;29.67;;;27.07;;
3211;SDS011;1618;47.056;15.472;2023-05-10T11:55:02;29.37;;;26.73;;
3211;SDS011;1618;47.056;15.472;2023-05-10T11:57:30;29.00;;;26.30;;
3211;SDS011;1618;47.056;15.472;2023-05-10T11:59:57;30.00;;;27.30;;
3211;SDS011;1618;47.056;15.472;2023-05-10T12:02:26;29.70;;;27.10;;
3211;SDS011;1618;47.056;15.472;2023-05-10T12:04:53;29.30;;;26.80;;
3211;SDS011;1618;47.056;15.472;2023-05-10T12:07:22;29.40;;;26.80;;
3211;SDS011;1618;47.056;15.472;2023-05-10T12:10:05;29.40;;;26.80;;
3211;SDS011;1618;47.056;15.472;2023-05-10T12:12:39;29.50;;;26.90;;
3211;SDS011;1618;47.056;15.472;2023-05-10T12:15:11;29.90;;;27.20;;
3211;SDS011;1618;47.056;15.472;2023-05-10T12:17:40;30.07;;;27.40;;
3211;SDS011;1618;47.056;15.472;2023-05-10T12:20:13;32.00;;;29.50;;
3211;SDS011;1618;47.056;15.472;2023-05-10T12:22:42;31.60;;;28.83;;
3211;SDS011;1618;47.056;15.472;2023-05-10T12:25:10;29.83;;;27.17;;
3211;SDS011;1618;47.056;15.472;2023-05-10T12:27:37;30.50;;;27.80;;
3211;SDS011;1618;47.056;15.472;2023-05-10T12:30:05;29.20;;;26.50;;
3211;SDS011;1618;47.056;15.472;2023-05-10T12:32:40;29.43;;;26.83;;
3211;SDS011;1618;47.056;15.472;2023-05-10T12:35:08;29.73;;;27.03;;
3211;SDS011;1618;47.056;15.472;2023-05-10T12:37:35;29.63;;;26.90;;
3211;SDS011;1618;47.056;15.472;2023-05-10T12:40:05;29.60;;;27.00;;
3211;SDS011;1618;47.056;15.472;2023-05-10T12:42:34;29.77;;;27.07;;
3211;SDS011;1618;47.056;15.472;2023-05-10T12:45:02;29.70;;;27.00;;
3211;SDS011;1618;47.056;15.472;2023-05-10T12:47:30;29.53;;;26.87;;
3211;SDS011;1618;47.056;15.472;2023-05-10T12:50:00;29.23;;;26.53;;
3211;SDS011;1618;47.056;15.472;2023-05-10T12:52:28;29.00;;;26.47;;
3211;SDS011;1618;47.056;15.472;2023-05-10T12:54:56;28.40;;;25.90;;
3211;SDS011;1618;47.056;15.472;2023-05-10T12:57:24;29.70;;;27.10;;
3211;SDS011;1618;47.056;15.472;2023-05-10T12:59:51;29.87;;;27.37;;
3211;SDS011;1618;47.056;15.472;2023-05-10T13:02:18;29.13;;;26.73;;
3211;SDS011;1618;47.056;15.472;2023-05-10T13:04:46;29.10;;;26.70;;
3211;SDS011;1618;47.056;15.472;2023-05-10T13:07:15;30.20;;;27.70;;
3211;SDS011;1618;47.056;15.472;2023-05-10T13:09:42;29.60;;;27.00;;
3211;SDS011;1618;47.056;15.472;2023-05-10T13:12:09;29.30;;;26.50;;
3211;SDS011;1618;47.056;15.472;2023-05-10T13:14:37;28.87;;;26.17;;
3211;SDS011;1618;47.056;15.472;2023-05-10T13:17:05;29.53;;;26.83;;
3211;SDS011;1618;47.056;15.472;2023-05-10T13:19:33;29.63;;;26.93;;
3211;SDS011;1618;47.056;15.472;2023-05-10T13:22:00;29.00;;;26.40;;
3211;SDS011;1618;47.056;15.472;2023-05-10T13:24:29;28.83;;;26.30;;
3211;SDS011;1618;47.056;15.472;2023-05-10T13:26:57;30.70;;;27.90;;
3211;SDS011;1618;47.056;15.472;2023-05-10T13:29:25;30.27;;;27.67;;
3211;SDS011;1618;47.056;15.472;2023-05-10T13:31:52;29.40;;;26.80;;
3211;SDS011;1618;47.056;15.472;2023-05-10T13:34:20;30.43;;;27.93;;
3211;SDS011;1618;47.056;15.472;2023-05-10T13:36:47;30.50;;;27.90;;
3211;SDS011;1618;47.056;15.472;2023-05-10T13:39:19;30.30;;;27.70;;
3211;SDS011;1618;47.056;15.472;2023-05-10T13:41:50;30.50;;;27.80;;
3211;SDS011;1618;47.056;15.472;2023-05-10T13:44:17;29.10;;;26.60;;
3211;SDS011;1618;47.056;15.472;2023-05-10T13:46:45;30.40;;;26.90;;
3211;SDS011;1618;47.056;15.472;2023-05-10T13:49:12;29.20;;;26.70;;
3211;SDS011;1618;47.056;15.472;2023-05-10T13:51:40;29.60;;;27.00;;
3211;SDS011;1618;47.056;15.472;2023-05-10T13:54:07;28.90;;;26.40;;
3211;SDS011;1618;47.056;15.472;2023-05-10T13:56:35;28.37;;;25.73;;
3211;SDS011;1618;47.056;15.472;2023-05-10T13:59:03;31.87;;;29.37;;
3211;SDS011;1618;47.056;15.472;2023-05-10T14:01:31;30.00;;;27.60;;
3211;SDS011;1618;47.056;15.472;2023-05-10T14:03:58;28.80;;;26.10;;
3211;SDS011;1618;47.056;15.472;2023-05-10T14:06:25;29.07;;;26.33;;
3211;SDS011;1618;47.056;15.472;2023-05-10T14:08:53;29.80;;;27.10;;
3211;SDS011;1618;47.056;15.472;2023-05-10T14:11:20;29.40;;;26.70;;
3211;SDS011;1618;47.056;15.472;2023-05-10T14:13:48;29.73;;;26.93;;
3211;SDS011;1618;47.056;15.472;2023-05-10T14:16:17;29.07;;;26.47;;
3211;SDS011;1618;47.056;15.472;2023-05-10T14:18:45;29.93;;;27.17;;
3211;SDS011;1618;47.056;15.472;2023-05-10T14:21:12;30.77;;;28.07;;
3211;SDS011;1618;47.056;15.472;2023-05-10T14:23:40;30.67;;;27.77;;
3211;SDS011;1618;47.056;15.472;2023-05-10T14:26:07;30.47;;;27.87;;
3211;SDS011;1618;47.056;15.472;2023-05-10T14:28:35;31.43;;;28.93;;
3211;SDS011;1618;47.056;15.472;2023-05-10T14:31:02;30.80;;;28.30;;
3211;SDS011;1618;47.056;15.472;2023-05-10T14:33:31;30.77;;;27.90;;
3211;SDS011;1618;47.056;15.472;2023-05-10T14:35:59;30.13;;;27.53;;
3211;SDS011;1618;47.056;15.472;2023-05-10T14:38:28;29.53;;;26.93;;
3211;SDS011;1618;47.056;15.472;2023-05-10T14:40:55;29.30;;;26.70;;
3211;SDS011;1618;47.056;15.472;2023-05-10T14:43:23;29.53;;;26.93;;
3211;SDS011;1618;47.056;15.472;2023-05-10T14:45:50;29.90;;;27.40;;
3211;SDS011;1618;47.056;15.472;2023-05-10T14:48:17;29.57;;;27.00;;
3211;SDS011;1618;47.056;15.472;2023-05-10T14:50:47;29.97;;;27.30;;
3211;SDS011;1618;47.056;15.472;2023-05-10T14:53:15;29.60;;;26.90;;
3211;SDS011;1618;47.056;15.472;2023-05-10T14:55:42;29.57;;;26.77;;